Eastlake, CO (80614)

09:51 AM MDT del 04 Agosto 2015 (GMT -0600)
Shadow Ridge | | Change Station
CLOSE
Current Station
Stazione meteo personale
Location: Thornton, CO
Altitudine: 5335 ft
Stazioni meteo nelle vicinanze

Alt. 5335 ft 39.94 °N, 104.94 °W | Updated 16 seconds ago

Parzialmente nuvoloso
Parzialmente nuvoloso
73.6 °F
Sembra 77 °F
N
1.1
Vento Variabile Vento da OSO
Gusts 2.5 mph

Oggi
Massima -- | Minima -- °F
--% Possibilità di precip.
Ieri
Massima -- | Minima -- °F
Precip. -- in
6:00 AM 8:10 PM
Gobba a levante, 76% visible
Pressione 30.10 in
Visibilità 10.0 miglia
Nuvole Sereno
Indice di calore 77 °F
Punto di rugiada 49 °F
Umidità 42%
Piovosità 0.00 in
Spessore del manto nevoso Non disponibile.
Raggi UV 2.0 fuori da 12
Polline 7.60 fuori da 12
Qualità dell'aria Non disponibile.
Flu Activity Non disponibile.
METAR KEIK 041535Z AUTO 14003KT 10SM CLR 23/10 A3010 RMK AO2 T02280095

More Conditions Fewer Conditions

Pressione 30.10 in
Visibilità 10.0 miglia
Nuvole Sereno
Indice di calore 77 °F
Punto di rugiada 49 °F
Umidità 42%
Piovosità 0.00 in
Spessore del manto nevoso Non disponibile.
Raggi UV 2.0 fuori da 12
Polline 7.60 fuori da 12
Qualità dell'aria Non disponibile.
Flu Activity Non disponibile.
METAR KEIK 041535Z AUTO 14003KT 10SM CLR 23/10 A3010 RMK AO2 T02280095

More Conditions Fewer Conditions

10-Day Weather Forecast

×

Almanac

Astronomia

Aug. 04, 2015 Alba Tramonto
Ora attuale
Crepuscolo civile
Crepuscolo nautico
Crepuscolo astronomico
Luna
Estensione della luce visibile
Lunghezza del giorno
Tomorrow will be .
, % of the Moon is Illuminated

Gli estremi di oggi

State Highs State Lows

Community

WunderPhotos

Upload Photos

1,843,909 foto caricate!

WunderBlogs® & News

Nearby

Qualità dell'aria

  Qualità dell'aria Indice AQ Inquinante
Not available.

Profondità neve

Stazione Profondità Altitudine

Attività sismica

Città  Distanza Mag. Data & Ora
Minimo Magnitudo Mostrato è 2.5.

Temperature delle acque costiere

Località Temperatura

Stations

Stazioni meteo nelle vicinanze

Ubicazione della stazione Temp. Raffreddamento del vento Punto di rugiada Umidità Vento Precip. Alt. Aggiornato Tipo